Time;durP1;ratioP1;P1;durP2;ratioP2;P2;SDS_P1;SDS_P2;PMS_P1;PMS_P2;Temp;Humidity;BMP_temperature;BMP_pressure;BME280_temperature;BME280_humidity;BME280_pressure;Samples;Min_cycle;Max_cycle;Signal;HPM_P1;HPM_P2
2021/11/14 00:00:47;;;;;;;8.00;7.20;;;23.10;45.10;;;;;;1852824;77;21048;-48
2021/11/14 00:03:14;;;;;;;8.05;7.25;;;23.20;45.20;;;;;;1852872;77;21133;-46
2021/11/14 00:05:42;;;;;;;8.15;7.30;;;23.10;45.20;;;;;;1852840;77;21039;-47
2021/11/14 00:08:14;;;;;;;7.83;7.03;;;23.10;45.10;;;;;;1852801;77;21173;-48
2021/11/14 00:10:42;;;;;;;;;;;23.10;45.10;;;;;;1855819;77;21469;-48
2021/11/14 00:13:09;;;;;;;9.13;8.23;;;23.00;45.30;;;;;;1852856;77;20275;-49
2021/11/14 00:15:37;;;;;;;7.90;7.08;;;22.90;45.60;;;;;;1852962;77;21087;-51
2021/11/14 00:18:06;;;;;;;7.87;7.17;;;23.00;45.30;;;;;;1852945;77;21605;-50
2021/11/14 00:20:34;;;;;;;8.63;7.72;;;23.10;45.30;;;;;;1852807;77;21071;-46
2021/11/14 00:23:01;;;;;;;8.30;7.50;;;23.10;45.20;;;;;;1852932;77;21540;-50
2021/11/14 00:25:29;;;;;;;8.98;8.15;;;23.10;45.20;;;;;;1852921;77;21576;-51
2021/11/14 00:27:56;;;;;;;8.05;7.25;;;23.10;45.20;;;;;;1852778;76;21016;-49
2021/11/14 00:30:24;;;;;;;8.38;7.58;;;23.10;45.20;;;;;;1852916;77;21555;-47
2021/11/14 00:32:52;;;;;;;8.68;7.78;;;23.10;45.20;;;;;;1852821;77;21145;-48
2021/11/14 00:35:20;;;;;;;8.40;7.60;;;23.10;45.20;;;;;;1852800;77;21184;-50
2021/11/14 00:37:48;;;;;;;7.87;7.00;;;23.10;45.10;;;;;;1852839;77;21072;-45
2021/11/14 00:40:21;;;;;;;7.78;6.97;;;23.10;45.10;;;;;;1852799;77;21083;-46
2021/11/14 00:42:49;;;;;;;8.83;7.95;;;23.10;45.10;;;;;;1852551;77;21095;-47
2021/11/14 00:45:17;;;;;;;8.23;7.42;;;23.10;45.20;;;;;;1852865;77;21044;-47
2021/11/14 00:47:45;;;;;;;7.20;6.50;;;23.10;45.20;;;;;;1852896;77;21564;-49
2021/11/14 00:50:12;;;;;;;8.10;7.30;;;23.10;45.10;;;;;;1852925;77;21544;-49
2021/11/14 00:52:41;;;;;;;7.80;7.00;;;23.10;45.10;;;;;;1852927;77;21559;-49
2021/11/14 00:55:10;;;;;;;7.85;7.05;;;23.10;45.10;;;;;;1852963;77;21501;-49
2021/11/14 00:57:38;;;;;;;7.17;6.47;;;23.10;45.10;;;;;;1852824;77;21110;-48
2021/11/14 01:00:09;;;;;;;8.08;7.28;;;23.10;45.20;;;;;;1852798;77;21040;-47
2021/11/14 01:02:37;;;;;;;8.60;7.80;;;23.10;45.20;;;;;;1852976;77;21138;-48
2021/11/14 01:05:06;;;;;;;8.48;7.67;;;23.10;45.20;;;;;;1852767;77;21431;-47
2021/11/14 01:07:34;;;;;;;8.35;7.45;;;23.10;45.20;;;;;;1852877;77;21493;-49
2021/11/14 01:10:01;;;;;;;7.67;6.87;;;23.10;45.20;;;;;;1852828;77;21023;-48
2021/11/14 01:12:29;;;;;;;7.80;7.00;;;23.10;45.20;;;;;;1852907;77;21528;-46
2021/11/14 01:14:56;;;;;;;8.20;7.33;;;23.10;45.10;;;;;;1852801;77;21083;-46
2021/11/14 01:17:24;;;;;;;8.63;7.72;;;23.10;45.10;;;;;;1852838;77;21536;-47
2021/11/14 01:19:52;;;;;;;9.20;8.18;;;23.10;45.10;;;;;;1852894;77;21528;-47
2021/11/14 01:22:19;;;;;;;8.75;7.87;;;23.10;45.10;;;;;;1852899;77;21645;-48
2021/11/14 01:24:47;;;;;;;7.80;7.00;;;23.10;45.10;;;;;;1852811;77;21137;-48
2021/11/14 01:27:15;;;;;;;8.48;7.55;;;23.10;45.10;;;;;;1852888;77;21527;-46
2021/11/14 01:29:43;;;;;;;9.15;8.25;;;23.10;45.10;;;;;;1852749;76;21072;-47
2021/11/14 01:32:10;;;;;;;9.00;8.10;;;23.10;45.10;;;;;;1852896;77;21535;-47
2021/11/14 01:34:38;;;;;;;9.85;8.85;;;23.10;45.10;;;;;;1852895;77;21536;-49
2021/11/14 01:37:06;;;;;;;8.68;7.78;;;23.10;45.10;;;;;;1852902;77;21516;-49
2021/11/14 01:39:34;;;;;;;8.73;7.83;;;23.10;45.10;;;;;;1852881;77;21477;-47
2021/11/14 01:42:01;;;;;;;8.13;7.33;;;23.10;45.10;;;;;;1852740;77;21091;-50
2021/11/14 01:44:29;;;;;;;8.88;7.97;;;23.10;45.10;;;;;;1852907;77;21521;-46
2021/11/14 01:46:56;;;;;;;8.90;8.00;;;23.10;45.00;;;;;;1852815;77;21066;-49
2021/11/14 01:49:25;;;;;;;8.53;7.70;;;23.10;45.00;;;;;;1852772;77;21613;-51
2021/11/14 01:51:53;;;;;;;8.88;7.97;;;23.10;45.10;;;;;;1852757;77;21141;-47
2021/11/14 01:54:22;;;;;;;8.60;7.70;;;23.00;45.00;;;;;;1852869;77;21516;-51
2021/11/14 01:56:49;;;;;;;8.25;7.22;;;23.10;45.10;;;;;;1852756;77;21122;-53
2021/11/14 01:59:17;;;;;;;9.18;8.18;;;23.10;45.10;;;;;;1852779;77;21536;-49
2021/11/14 02:01:45;;;;;;;9.00;8.10;;;23.00;45.00;;;;;;1852840;77;21532;-48
2021/11/14 02:04:12;;;;;;;8.75;7.85;;;23.10;45.10;;;;;;1852802;77;21594;-47
2021/11/14 02:06:42;;;;;;;9.00;8.10;;;23.10;45.10;;;;;;1852883;77;21685;-50
2021/11/14 02:09:10;;;;;;;9.53;8.53;;;23.00;45.10;;;;;;1852524;77;21170;-52
2021/11/14 02:11:37;;;;;;;9.63;8.63;;;23.00;45.60;;;;;;1852765;77;21068;-50
2021/11/14 02:14:05;;;;;;;9.15;8.10;;;23.10;45.10;;;;;;1852947;77;21524;-47
2021/11/14 02:16:33;;;;;;;9.68;8.68;;;23.10;45.10;;;;;;1852849;77;21563;-48
2021/11/14 02:19:00;;;;;;;10.15;9.15;;;23.10;45.10;;;;;;1852962;77;21638;-48
2021/11/14 02:21:28;;;;;;;9.08;8.18;;;23.10;45.10;;;;;;1852854;77;21603;-50
2021/11/14 02:23:56;;;;;;;9.13;8.23;;;23.10;45.10;;;;;;1852956;77;21516;-50
2021/11/14 02:26:24;;;;;;;8.58;7.67;;;23.10;45.10;;;;;;1852868;77;21135;-45
2021/11/14 02:28:53;;;;;;;9.20;8.30;;;23.10;45.10;;;;;;1852894;76;21626;-48
2021/11/14 02:31:21;;;;;;;8.90;8.00;;;23.00;45.00;;;;;;1852971;77;21169;-46
2021/11/14 02:33:49;;;;;;;9.08;8.18;;;23.00;45.50;;;;;;1852889;77;21145;-48
2021/11/14 02:36:18;;;;;;;10.18;9.18;;;23.00;45.00;;;;;;1852968;77;21543;-50
2021/11/14 02:38:46;;;;;;;9.25;8.35;;;23.00;45.00;;;;;;1852992;77;21153;-51
2021/11/14 02:41:13;;;;;;;10.55;9.55;;;23.00;45.00;;;;;;1852857;77;21609;-49
2021/11/14 02:43:43;;;;;;;9.55;8.55;;;23.00;45.00;;;;;;1852971;77;21083;-47
2021/11/14 02:46:11;;;;;;;9.33;8.43;;;23.00;45.00;;;;;;1852912;77;21145;-48
2021/11/14 02:48:38;;;;;;;10.03;9.03;;;23.00;45.00;;;;;;1852970;77;21528;-51
2021/11/14 02:51:08;;;;;;;10.23;9.18;;;23.00;45.00;;;;;;1852969;77;21548;-46
2021/11/14 02:53:35;;;;;;;9.40;8.50;;;23.00;45.00;;;;;;1852867;77;21051;-49
2021/11/14 02:56:03;;;;;;;10.00;8.70;;;23.00;45.00;;;;;;1852940;77;21544;-46
2021/11/14 02:58:31;;;;;;;8.73;7.83;;;23.00;44.90;;;;;;1852948;77;21617;-49
2021/11/14 03:01:02;;;;;;;8.93;8.03;;;23.00;44.90;;;;;;1852901;77;21575;-52
2021/11/14 03:03:29;;;;;;;;;;;23.00;44.90;;;;;;1855626;77;21059;-46
2021/11/14 03:05:57;;;;;;;9.98;8.98;;;22.90;45.10;;;;;;1849807;77;20145;-47
2021/11/14 03:08:24;;;;;;;9.85;8.85;;;22.80;45.30;;;;;;1847620;78;21465;-48
2021/11/14 03:10:53;;;;;;;8.85;7.95;;;22.90;45.10;;;;;;1847619;78;21626;-47
2021/11/14 03:13:22;;;;;;;9.65;8.65;;;23.00;45.00;;;;;;1847524;78;21194;-48
2021/11/14 03:15:52;;;;;;;9.68;8.68;;;23.00;45.00;;;;;;1847534;78;21063;-49
2021/11/14 03:18:20;;;;;;;9.50;8.40;;;23.00;44.90;;;;;;1847505;78;21085;-49
2021/11/14 03:20:49;;;;;;;9.73;8.73;;;23.00;44.90;;;;;;1847570;78;21120;-48
2021/11/14 03:23:16;;;;;;;9.33;8.33;;;23.00;44.90;;;;;;1847525;78;21083;-47
2021/11/14 03:25:45;;;;;;;9.85;8.85;;;23.00;45.00;;;;;;1847605;78;21645;-50
2021/11/14 03:28:12;;;;;;;9.93;8.93;;;23.00;44.90;;;;;;1847453;76;21103;-49
2021/11/14 03:30:41;;;;;;;10.05;9.05;;;23.00;44.90;;;;;;1847681;78;21122;-54
2021/11/14 03:33:11;;;;;;;9.60;8.60;;;23.00;44.90;;;;;;1847507;78;21568;-50
2021/11/14 03:35:43;;;;;;;9.70;8.73;;;23.00;44.90;;;;;;1847520;78;21060;-49
2021/11/14 03:38:12;;;;;;;10.78;9.50;;;23.00;44.90;;;;;;1847533;78;21095;-51
2021/11/14 03:40:39;;;;;;;10.40;9.33;;;23.00;44.90;;;;;;1847585;78;21537;-48
2021/11/14 03:43:10;;;;;;;9.98;8.75;;;23.00;44.90;;;;;;1847539;78;21556;-47
2021/11/14 03:45:38;;;;;;;10.32;9.23;;;23.00;44.90;;;;;;1847514;78;22489;-47
2021/11/14 03:48:06;;;;;;;10.53;9.43;;;23.00;44.90;;;;;;1847619;78;21599;-48
2021/11/14 03:50:34;;;;;;;11.43;9.63;;;23.00;44.90;;;;;;1847622;78;21610;-50
2021/11/14 03:53:01;;;;;;;9.63;8.63;;;23.00;44.90;;;;;;1847515;78;21096;-48
2021/11/14 03:55:29;;;;;;;10.55;9.25;;;23.00;44.90;;;;;;1847515;78;21119;-50
2021/11/14 03:57:57;;;;;;;9.00;8.10;;;23.00;44.90;;;;;;1847469;78;21091;-50
2021/11/14 04:00:27;;;;;;;9.08;8.18;;;23.00;44.80;;;;;;1847442;78;21087;-49
2021/11/14 04:02:56;;;;;;;9.95;8.95;;;23.00;44.80;;;;;;1847507;78;21056;-48
2021/11/14 04:05:24;;;;;;;10.00;8.70;;;23.00;44.80;;;;;;1847516;77;21698;-48
2021/11/14 04:07:52;;;;;;;9.38;8.38;;;23.00;44.80;;;;;;1847772;78;21610;-48
2021/11/14 04:10:20;;;;;;;9.50;8.50;;;23.00;44.80;;;;;;1847806;78;21563;-46
2021/11/14 04:12:48;;;;;;;9.25;8.25;;;22.90;44.70;;;;;;1847681;78;21162;-48
2021/11/14 04:15:16;;;;;;;10.63;9.53;;;23.00;44.80;;;;;;1847792;78;21489;-47
2021/11/14 04:17:44;;;;;;;9.38;8.45;;;23.00;44.80;;;;;;1847659;78;21576;-50
2021/11/14 04:20:13;;;;;;;9.50;8.53;;;23.00;44.80;;;;;;1847682;78;21642;-49
2021/11/14 04:22:41;;;;;;;9.05;7.97;;;23.00;44.80;;;;;;1847671;78;21127;-48
2021/11/14 04:25:09;;;;;;;9.50;8.53;;;23.00;44.80;;;;;;1847643;78;21566;-51
2021/11/14 04:27:36;;;;;;;9.10;8.13;;;22.90;44.70;;;;;;1847690;78;21569;-51
2021/11/14 04:30:04;;;;;;;10.20;9.10;;;23.00;44.70;;;;;;1847648;76;21131;-48
2021/11/14 04:32:32;;;;;;;9.60;8.68;;;23.00;44.70;;;;;;1847674;78;21048;-48
2021/11/14 04:34:59;;;;;;;9.60;8.70;;;22.90;44.70;;;;;;1847798;78;21474;-49
2021/11/14 04:37:27;;;;;;;9.25;8.35;;;23.00;44.70;;;;;;1847687;78;21530;-48
2021/11/14 04:39:55;;;;;;;9.83;8.63;;;22.90;44.60;;;;;;1847664;78;21591;-47
2021/11/14 04:42:22;;;;;;;9.35;8.38;;;23.00;44.70;;;;;;1847726;78;21539;-48
2021/11/14 04:44:49;;;;;;;9.58;8.58;;;23.00;44.60;;;;;;1847675;78;21186;-46
2021/11/14 04:47:18;;;;;;;9.08;8.18;;;23.00;44.70;;;;;;1847687;78;21612;-50
2021/11/14 04:49:46;;;;;;;10.23;9.23;;;22.90;44.60;;;;;;1847681;78;21076;-48
2021/11/14 04:52:13;;;;;;;9.53;8.53;;;23.00;44.60;;;;;;1847761;78;21577;-53
2021/11/14 04:54:41;;;;;;;9.83;8.83;;;23.00;44.60;;;;;;1847784;78;21575;-49
2021/11/14 04:57:08;;;;;;;9.08;8.18;;;23.00;44.50;;;;;;1847672;78;21112;-46
2021/11/14 04:59:36;;;;;;;9.00;8.10;;;23.00;44.50;;;;;;1847809;78;21036;-49
2021/11/14 05:02:04;;;;;;;8.65;7.75;;;23.00;44.50;;;;;;1847654;77;21584;-51
2021/11/14 05:04:31;;;;;;;9.48;8.48;;;22.90;44.50;;;;;;1847680;78;21147;-48
2021/11/14 05:06:59;;;;;;;9.40;8.40;;;23.00;44.50;;;;;;1849269;77;21540;-46
2021/11/14 05:09:26;;;;;;;9.68;8.68;;;23.00;44.50;;;;;;1850432;77;21040;-47
2021/11/14 05:11:54;;;;;;;9.95;8.93;;;22.90;44.40;;;;;;1850357;77;21531;-50
2021/11/14 05:14:22;;;;;;;9.30;8.40;;;22.90;44.40;;;;;;1850431;77;21583;-47
2021/11/14 05:16:49;;;;;;;8.60;7.80;;;23.00;44.40;;;;;;1850461;77;21465;-47
2021/11/14 05:19:17;;;;;;;9.60;8.60;;;22.90;44.40;;;;;;1850352;77;21075;-48
2021/11/14 05:21:44;;;;;;;9.98;8.98;;;22.90;44.90;;;;;;1850260;77;21044;-47
2021/11/14 05:24:12;;;;;;;9.55;8.65;;;22.90;44.30;;;;;;1850355;77;21548;-49
2021/11/14 05:26:39;;;;;;;9.18;8.20;;;22.90;44.30;;;;;;1850447;77;21504;-49
2021/11/14 05:29:07;;;;;;;10.13;9.13;;;22.90;44.20;;;;;;1850304;76;21083;-46
2021/11/14 05:31:34;;;;;;;9.43;8.28;;;22.90;44.20;;;;;;1850400;77;21665;-51
2021/11/14 05:34:02;;;;;;;9.95;8.95;;;23.00;44.20;;;;;;1850306;77;21083;-51
2021/11/14 05:36:30;;;;;;;9.48;8.53;;;22.90;44.20;;;;;;1850322;77;21086;-48
2021/11/14 05:38:57;;;;;;;9.75;8.60;;;22.90;44.20;;;;;;1850417;77;21557;-47
2021/11/14 05:41:25;;;;;;;11.08;9.98;;;23.00;44.20;;;;;;1850362;77;21086;-47
2021/11/14 05:43:52;;;;;;;11.00;9.90;;;23.00;44.20;;;;;;1850489;77;21556;-50
2021/11/14 05:46:20;;;;;;;10.70;9.48;;;22.90;44.10;;;;;;1850319;77;21044;-46
2021/11/14 05:48:47;;;;;;;10.80;9.70;;;22.90;44.10;;;;;;1850274;77;21141;-45
2021/11/14 05:51:15;;;;;;;10.78;9.25;;;22.90;44.10;;;;;;1850406;77;21533;-46
2021/11/14 05:53:43;;;;;;;11.68;10.35;;;22.90;44.00;;;;;;1850368;77;21540;-46
2021/11/14 05:56:10;;;;;;;11.22;10.05;;;22.90;44.00;;;;;;1850417;77;21593;-46
2021/11/14 05:58:45;;;;;;;10.65;9.43;;;22.90;44.00;;;;;;1850412;77;21657;-49
2021/11/14 06:01:11;;;;;;;10.08;9.08;;;23.00;44.00;;;;;;1848856;77;21083;-45
2021/11/14 06:06:07;;;;;;;11.10;9.90;;;22.90;43.90;;;;;;1850191;77;21092;-49
2021/11/14 06:08:36;;;;;;;11.03;9.93;;;22.90;43.90;;;;;;1850250;77;21079;-50
2021/11/14 06:11:03;;;;;;;12.37;10.75;;;22.90;43.90;;;;;;1850296;77;21069;-49
2021/11/14 06:13:34;;;;;;;11.30;10.00;;;22.90;43.90;;;;;;1850193;77;21570;-50
2021/11/14 06:16:02;;;;;;;11.43;9.63;;;22.90;43.90;;;;;;1850262;77;21098;-49
2021/11/14 06:18:29;;;;;;;12.25;10.58;;;22.90;43.50;;;;;;1850060;77;21056;-47
2021/11/14 06:20:57;;;;;;;11.93;10.25;;;22.90;43.80;;;;;;1850070;77;21067;-45
2021/11/14 06:23:25;;;;;;;11.15;9.95;;;22.90;43.80;;;;;;1850136;77;21532;-48
2021/11/14 06:25:52;;;;;;;11.30;9.90;;;22.90;43.80;;;;;;1850043;77;21617;-49
2021/11/14 06:28:20;;;;;;;12.78;11.18;;;22.90;43.70;;;;;;1850116;76;21497;-50
2021/11/14 06:30:47;;;;;;;11.70;10.25;;;22.90;43.70;;;;;;1850145;77;21733;-48
2021/11/14 06:33:15;;;;;;;11.80;10.28;;;23.00;43.70;;;;;;1850148;77;21095;-47
2021/11/14 06:35:44;;;;;;;12.28;10.55;;;22.90;44.00;;;;;;1850132;77;21522;-47
2021/11/14 06:38:12;;;;;;;11.53;10.32;;;22.90;43.60;;;;;;1850011;77;21071;-50
2021/11/14 06:40:39;;;;;;;11.25;10.05;;;22.90;43.60;;;;;;1850083;77;21512;-48
2021/11/14 06:43:07;;;;;;;11.88;9.95;;;22.90;43.60;;;;;;1850033;77;21043;-48
2021/11/14 06:45:34;;;;;;;10.60;9.03;;;22.90;43.50;;;;;;1850258;77;21083;-47
2021/11/14 06:48:02;;;;;;;12.30;9.98;;;22.90;43.40;;;;;;1850181;77;21576;-48
2021/11/14 06:50:29;;;;;;;12.05;10.13;;;22.90;43.40;;;;;;1850062;77;21051;-50
2021/11/14 06:52:57;;;;;;;11.15;9.40;;;22.90;43.40;;;;;;1850166;77;21147;-50
2021/11/14 06:55:24;;;;;;;11.80;10.13;;;22.90;43.40;;;;;;1850142;77;21548;-46
2021/11/14 06:57:52;;;;;;;11.30;10.05;;;22.90;43.30;;;;;;1850027;77;21048;-44
2021/11/14 07:00:21;;;;;;;11.48;9.75;;;22.90;43.30;;;;;;1850154;77;21105;-50
2021/11/14 07:02:49;;;;;;;11.25;10.05;;;22.90;43.40;;;;;;1850196;77;21133;-48
2021/11/14 07:05:16;;;;;;;12.63;10.20;;;22.90;43.30;;;;;;1850233;77;21597;-46
2021/11/14 07:07:44;;;;;;;11.33;9.75;;;22.90;43.80;;;;;;1850104;77;21169;-48
2021/11/14 07:10:13;;;;;;;12.65;10.63;;;22.90;43.20;;;;;;1850334;77;21198;-50
2021/11/14 07:12:40;;;;;;;11.10;9.33;;;22.90;43.20;;;;;;1850359;77;21181;-47
2021/11/14 07:15:10;;;;;;;11.12;9.65;;;22.90;43.20;;;;;;1850368;77;21151;-48
2021/11/14 07:17:37;;;;;;;10.53;9.43;;;22.90;43.20;;;;;;1850354;77;21060;-47
2021/11/14 07:20:06;;;;;;;11.83;9.63;;;22.90;43.20;;;;;;1850356;77;21079;-47
2021/11/14 07:22:33;;;;;;;12.25;9.68;;;22.90;43.20;;;;;;1850457;77;21047;-48
2021/11/14 07:25:01;;;;;;;12.03;9.48;;;22.90;43.20;;;;;;1850334;77;21575;-45
2021/11/14 07:27:28;;;;;;;11.33;10.13;;;22.90;43.10;;;;;;1850488;77;21574;-51
2021/11/14 07:29:55;;;;;;;12.80;10.40;;;22.90;43.10;;;;;;1850454;76;21108;-50
2021/11/14 07:32:23;;;;;;;11.55;9.40;;;22.90;43.10;;;;;;1850360;77;21047;-48
2021/11/14 07:34:50;;;;;;;11.83;10.03;;;22.90;43.10;;;;;;1850451;77;21926;-49
2021/11/14 07:37:18;;;;;;;10.75;9.33;;;22.90;43.10;;;;;;1850420;77;21549;-48
2021/11/14 07:39:45;;;;;;;11.50;9.15;;;22.90;43.60;;;;;;1850314;77;21493;-50
2021/11/14 07:42:13;;;;;;;10.35;8.75;;;22.90;42.90;;;;;;1850347;77;21586;-47
2021/11/14 07:44:41;;;;;;;13.43;9.45;;;22.90;43.00;;;;;;1850470;77;21541;-48
2021/11/14 07:47:08;;;;;;;10.35;9.25;;;22.90;43.00;;;;;;1850463;77;21521;-47
2021/11/14 07:49:36;;;;;;;11.38;9.93;;;22.90;42.90;;;;;;1850352;77;21242;-46
2021/11/14 07:52:04;;;;;;;11.38;10.15;;;22.90;42.90;;;;;;1850363;77;21496;-50
2021/11/14 07:54:31;;;;;;;13.10;9.68;;;22.90;42.90;;;;;;1850331;77;21151;-48
2021/11/14 07:56:59;;;;;;;10.20;9.10;;;22.90;43.00;;;;;;1850457;77;21583;-48
2021/11/14 07:59:27;;;;;;;10.98;9.00;;;22.90;42.90;;;;;;1850454;77;21521;-45
2021/11/14 08:01:54;;;;;;;10.78;9.45;;;22.90;42.90;;;;;;1850403;77;21193;-50
2021/11/14 08:04:21;;;;;;;11.08;9.33;;;22.90;42.90;;;;;;1850361;77;21091;-46
2021/11/14 08:06:49;;;;;;;12.30;10.00;;;22.90;42.90;;;;;;1850315;77;21079;-48
2021/11/14 08:09:16;;;;;;;13.98;10.80;;;22.90;42.80;;;;;;1847993;77;21087;-50
2021/11/14 08:11:44;;;;;;;12.07;9.48;;;22.90;42.80;;;;;;1847679;78;21142;-47
2021/11/14 08:14:13;;;;;;;11.20;9.55;;;22.90;42.90;;;;;;1847685;78;21674;-47
2021/11/14 08:16:40;;;;;;;10.25;8.73;;;22.90;42.90;;;;;;1847676;78;21201;-46
2021/11/14 08:19:08;;;;;;;13.28;9.70;;;22.90;42.90;;;;;;1847654;78;21642;-49
2021/11/14 08:21:36;;;;;;;14.35;9.93;;;22.90;42.90;;;;;;1847677;78;21202;-50
2021/11/14 08:24:03;;;;;;;11.88;9.48;;;22.90;42.80;;;;;;1847667;78;21608;-47
2021/11/14 08:26:31;;;;;;;13.50;10.23;;;22.90;42.80;;;;;;1847775;78;21613;-47
2021/11/14 08:28:58;;;;;;;11.20;9.78;;;22.90;42.80;;;;;;1847630;76;21139;-44
2021/11/14 08:31:27;;;;;;;11.33;8.98;;;22.90;42.80;;;;;;1847668;78;21181;-45
2021/11/14 08:33:54;;;;;;;11.83;10.03;;;22.90;42.90;;;;;;1847651;78;21116;-47
2021/11/14 08:36:22;;;;;;;12.43;9.33;;;22.90;42.80;;;;;;1847680;78;21111;-48
2021/11/14 08:38:49;;;;;;;12.35;10.23;;;22.90;42.90;;;;;;1847680;78;21113;-49
2021/11/14 08:41:17;;;;;;;12.95;9.80;;;22.90;42.90;;;;;;1847666;78;21572;-45
2021/11/14 08:43:45;;;;;;;11.22;9.20;;;22.90;42.90;;;;;;1847772;77;21623;-47
2021/11/14 08:46:12;;;;;;;12.23;9.80;;;22.90;42.90;;;;;;1847783;78;21535;-48
2021/11/14 08:48:40;;;;;;;10.53;9.40;;;22.90;42.80;;;;;;1847720;78;21079;-49
2021/11/14 08:51:08;;;;;;;10.23;8.65;;;22.90;42.80;;;;;;1847657;78;21095;-48
2021/11/14 08:53:35;;;;;;;10.05;8.90;;;22.90;42.90;;;;;;1847654;78;21606;-49
2021/11/14 08:56:03;;;;;;;10.40;9.30;;;22.90;42.80;;;;;;1847658;78;21104;-47
2021/11/14 08:58:32;;;;;;;10.45;8.83;;;22.90;42.80;;;;;;1847650;78;21368;-50
2021/11/14 09:01:01;;;;;;;10.50;9.00;;;22.90;42.80;;;;;;1847668;78;21153;-49
2021/11/14 09:03:29;;;;;;;11.85;10.03;;;22.90;42.80;;;;;;1847733;78;21500;-49
2021/11/14 09:05:56;;;;;;;11.05;9.43;;;22.90;42.80;;;;;;1847838;78;21501;-46
2021/11/14 09:08:24;;;;;;;13.18;10.63;;;22.90;42.80;;;;;;1847605;77;21101;-49
2021/11/14 09:10:51;;;;;;;10.05;9.03;;;22.90;42.80;;;;;;1847632;78;21631;-47
2021/11/14 09:13:19;;;;;;;11.55;9.55;;;22.90;42.70;;;;;;1847657;78;21190;-47
2021/11/14 09:15:46;;;;;;;10.85;9.75;;;22.90;42.70;;;;;;1847651;78;21195;-46
2021/11/14 09:18:16;;;;;;;11.18;9.38;;;22.90;42.70;;;;;;1847833;78;21512;-48
2021/11/14 09:20:44;;;;;;;10.20;8.83;;;22.90;42.70;;;;;;1847819;78;21157;-46
2021/11/14 09:23:11;;;;;;;9.73;8.70;;;22.90;42.70;;;;;;1847667;78;21660;-45
2021/11/14 09:25:40;;;;;;;11.35;9.65;;;22.90;43.00;;;;;;1847666;78;21151;-46
2021/11/14 09:28:11;;;;;;;10.10;8.68;;;22.90;42.70;;;;;;1847549;76;21745;-51
2021/11/14 09:30:42;;;;;;;10.30;9.05;;;22.90;42.70;;;;;;1847787;78;21158;-50
2021/11/14 09:33:10;;;;;;;10.45;9.35;;;22.90;42.70;;;;;;1847518;78;21104;-48
2021/11/14 09:35:37;;;;;;;10.32;8.48;;;22.90;42.70;;;;;;1847640;78;21040;-47
2021/11/14 09:38:05;;;;;;;11.25;9.40;;;22.90;42.70;;;;;;1847655;78;21073;-49
2021/11/14 09:40:34;;;;;;;13.28;8.75;;;22.90;42.60;;;;;;1847735;78;21500;-46
2021/11/14 09:43:02;;;;;;;11.63;8.28;;;22.90;42.60;;;;;;1847611;78;21225;-48
2021/11/14 09:45:30;;;;;;;9.00;8.05;;;22.90;42.60;;;;;;1847823;78;21512;-46
2021/11/14 09:47:57;;;;;;;11.78;8.90;;;22.90;42.60;;;;;;1847771;78;21509;-49
2021/11/14 09:50:25;;;;;;;9.38;8.33;;;22.90;42.60;;;;;;1847618;78;21163;-47
2021/11/14 09:52:56;;;;;;;9.90;8.60;;;22.90;42.60;;;;;;1847651;78;21096;-45
2021/11/14 09:55:27;;;;;;;10.17;9.07;;;22.90;42.60;;;;;;1847959;78;21571;-46
2021/11/14 09:57:54;;;;;;;11.18;8.63;;;22.90;42.60;;;;;;1847701;78;21082;-47
2021/11/14 10:00:26;;;;;;;12.15;8.48;;;22.90;42.70;;;;;;1847834;78;21614;-46
2021/11/14 10:02:51;;;;;;;10.85;9.05;;;22.90;42.60;;;;;;1847062;78;21674;-50
2021/11/14 10:05:19;;;;;;;10.23;8.45;;;22.90;42.60;;;;;;1847738;78;21533;-53
2021/11/14 10:07:57;;;;;;;10.43;9.03;;;22.90;42.60;;;;;;1847705;78;21570;-51
2021/11/14 10:10:27;;;;;;;10.82;8.80;;;22.90;42.60;;;;;;1850409;77;21128;-48
2021/11/14 10:12:55;;;;;;;10.93;9.05;;;22.90;42.60;;;;;;1850284;77;21586;-48
2021/11/14 10:15:24;;;;;;;10.45;8.50;;;22.90;42.60;;;;;;1850399;77;21524;-48
2021/11/14 10:17:55;;;;;;;10.10;9.00;;;22.90;42.60;;;;;;1850309;77;21577;-47
2021/11/14 10:20:35;;;;;;;10.25;8.80;;;22.90;42.70;;;;;;1850430;77;21173;-50
2021/11/14 10:23:11;;;;;;;11.40;9.38;;;22.90;42.70;;;;;;1850127;77;21164;-47
2021/11/14 10:25:38;;;;;;;12.60;9.18;;;22.80;42.80;;;;;;1850514;77;21087;-47
2021/11/14 10:28:07;;;;;;;14.75;9.30;;;22.80;42.70;;;;;;1850256;76;21087;-47
2021/11/14 10:30:36;;;;;;;11.20;8.38;;;22.80;42.70;;;;;;1850312;77;21091;-46
2021/11/14 10:33:06;;;;;;;12.30;9.00;;;22.90;42.80;;;;;;1850330;77;21052;-47
2021/11/14 10:35:34;;;;;;;10.28;8.33;;;22.80;42.80;;;;;;1850292;77;21102;-50
2021/11/14 10:38:05;;;;;;;12.47;8.73;;;22.80;42.70;;;;;;1850293;77;21110;-50
2021/11/14 10:40:36;;;;;;;13.58;9.43;;;22.90;42.70;;;;;;1850614;77;21124;-50
2021/11/14 10:43:04;;;;;;;12.23;8.88;;;22.80;42.60;;;;;;1850537;77;21141;-49
2021/11/14 10:45:34;;;;;;;11.90;8.90;;;22.90;42.70;;;;;;1850508;77;21625;-47
2021/11/14 10:48:03;;;;;;;11.48;8.80;;;22.90;42.70;;;;;;1842941;77;21457;-48
2021/11/14 10:50:32;;;;;;;13.43;8.93;;;22.90;42.70;;;;;;1850408;77;21047;-47
2021/11/14 10:53:02;;;;;;;11.55;9.10;;;22.90;42.70;;;;;;1850458;77;21088;-46
2021/11/14 10:55:31;;;;;;;11.55;9.63;;;22.80;42.60;;;;;;1849451;77;21573;-48
2021/11/14 10:57:59;;;;;;;12.58;8.65;;;22.90;42.60;;;;;;1850413;77;21524;-49
2021/11/14 11:00:29;;;;;;;10.88;8.58;;;22.90;42.60;;;;;;1850346;77;21036;-52
2021/11/14 11:02:56;;;;;;;12.60;8.30;;;22.90;42.60;;;;;;1850421;77;21179;-48
2021/11/14 11:05:25;;;;;;;9.00;7.83;;;22.90;42.60;;;;;;1850488;77;21485;-50
2021/11/14 11:08:00;;;;;;;9.50;8.50;;;22.90;42.60;;;;;;1850375;77;21071;-46
2021/11/14 11:10:36;;;;;;;10.45;8.35;;;22.90;42.60;;;;;;1848318;77;21099;-47
2021/11/14 11:13:05;;;;;;;12.30;8.45;;;22.90;42.60;;;;;;1847709;78;21036;-49
2021/11/14 11:15:49;;;;;;;9.83;8.35;;;22.80;42.70;;;;;;1847707;78;21068;-51
2021/11/14 11:18:21;;;;;;;9.48;8.48;;;22.80;42.60;;;;;;1847706;78;21165;-49
2021/11/14 11:20:53;;;;;;;9.48;7.75;;;22.80;42.70;;;;;;1847817;78;21528;-48
2021/11/14 11:23:21;;;;;;;9.40;7.97;;;22.80;42.60;;;;;;1847658;78;21137;-49
2021/11/14 11:25:57;;;;;;;9.78;8.53;;;22.80;42.70;;;;;;1847741;78;21145;-46
2021/11/14 11:28:31;;;;;;;8.10;7.25;;;22.80;42.60;;;;;;1847755;76;21551;-49
2021/11/14 11:31:10;;;;;;;9.88;8.23;;;22.80;42.60;;;;;;1847776;78;21091;-51
2021/11/14 11:33:40;;;;;;;9.95;8.28;;;22.80;42.60;;;;;;1847696;78;21127;-48
2021/11/14 11:36:09;;;;;;;9.33;7.40;;;22.80;42.70;;;;;;1847722;78;21571;-50
2021/11/14 11:38:37;;;;;;;9.43;8.38;;;22.80;42.60;;;;;;1847801;78;21520;-47
2021/11/14 11:41:05;;;;;;;10.88;7.80;;;22.80;42.60;;;;;;1847700;78;21112;-46
2021/11/14 11:43:34;;;;;;;8.95;7.80;;;22.80;42.60;;;;;;1847666;78;21114;-50
2021/11/14 11:46:07;;;;;;;9.30;8.23;;;22.80;42.50;;;;;;1847736;78;21140;-50
2021/11/14 11:48:43;;;;;;;9.80;8.20;;;22.80;42.40;;;;;;1847147;78;21129;-50
2021/11/14 11:51:16;;;;;;;9.65;7.60;;;22.80;42.40;;;;;;1847680;78;21606;-51
2021/11/14 11:53:46;;;;;;;8.75;7.62;;;22.80;42.40;;;;;;1847713;77;21557;-51
2021/11/14 11:56:16;;;;;;;9.40;8.03;;;22.80;42.40;;;;;;1846041;78;21108;-46
2021/11/14 11:58:51;;;;;;;9.08;8.18;;;22.80;42.40;;;;;;1847782;78;21442;-51
2021/11/14 12:01:30;;;;;;;8.60;7.45;;;22.80;42.40;;;;;;1847701;78;21065;-52
2021/11/14 12:04:15;;;;;;;9.25;8.25;;;22.80;42.40;;;;;;1847772;78;21484;-46
2021/11/14 12:06:45;;;;;;;8.73;7.55;;;22.80;42.40;;;;;;1847720;78;21068;-47
2021/11/14 12:09:14;;;;;;;8.73;7.58;;;22.70;42.40;;;;;;1847650;77;21594;-46
2021/11/14 12:11:45;;;;;;;8.08;7.20;;;22.80;42.40;;;;;;1853041;77;21052;-47
2021/11/14 12:14:23;;;;;;;8.90;7.97;;;22.80;42.40;;;;;;1853369;77;21520;-46
2021/11/14 12:17:08;;;;;;;9.30;7.80;;;22.80;42.30;;;;;;1853006;77;21573;-49
2021/11/14 12:19:40;;;;;;;9.35;8.15;;;22.80;42.40;;;;;;1853029;77;21051;-50
2021/11/14 12:22:09;;;;;;;9.28;7.97;;;22.80;42.40;;;;;;1853130;77;21456;-49
2021/11/14 12:24:51;;;;;;;8.23;7.28;;;22.80;42.40;;;;;;1853120;77;21148;-48
2021/11/14 12:27:32;;;;;;;9.30;8.10;;;22.80;42.30;;;;;;1853137;77;21133;-48
2021/11/14 12:30:04;;;;;;;8.33;7.47;;;22.80;42.40;;;;;;1852432;76;21509;-48
2021/11/14 12:32:43;;;;;;;8.73;7.35;;;22.80;42.40;;;;;;1853145;77;22353;-51
2021/11/14 12:35:17;;;;;;;7.83;6.97;;;22.80;42.40;;;;;;1853207;77;21028;-45
2021/11/14 12:37:48;;;;;;;8.73;7.28;;;22.80;42.40;;;;;;1853021;77;21056;-47
2021/11/14 12:40:20;;;;;;;8.60;7.70;;;22.80;42.30;;;;;;1852461;77;21558;-48
2021/11/14 12:42:46;;;;;;;9.05;6.53;;;22.80;42.50;;;;;;1852394;77;21574;-46
2021/11/14 12:45:13;;;;;;;8.38;7.47;;;22.80;42.30;;;;;;1853035;77;21125;-52
2021/11/14 12:47:43;;;;;;;7.58;6.78;;;22.80;42.30;;;;;;1853075;77;21045;-47
2021/11/14 12:50:15;;;;;;;8.00;7.20;;;22.80;42.20;;;;;;1853025;77;21067;-47